Time;durP1;ratioP1;P1;durP2;ratioP2;P2;SDS_P1;SDS_P2;PMS_P1;PMS_P2;Temp;Humidity;BMP_temperature;BMP_pressure;BME280_temperature;BME280_humidity;BME280_pressure;Samples;Min_cycle;Max_cycle;Signal;HPM_P1;HPM_P2
2021/09/14 00:00:56;;;;;;;;;;;;;;;22.26;51.96;101675.69;2075494;28;1064;-63
2021/09/14 00:01:56;;;;;;;;;;;;;;;22.33;50.40;101682.69;2075436;28;981;-63
2021/09/14 00:02:57;;;;;;;;;;;;;;;22.22;52.82;101679.41;2075400;28;698;-63
2021/09/14 00:03:57;;;;;;;;;;;;;;;22.26;51.02;101678.38;2075551;28;899;-64
2021/09/14 00:04:57;;;;;;;;;;;;;;;22.28;51.27;101676.53;2066552;28;965;-65
2021/09/14 00:05:58;;;;;;;;;;;;;;;22.28;51.16;101676.53;2066748;28;1282;-66
2021/09/14 00:06:58;;;;;;;;;;;;;;;22.25;51.03;101683.81;2066843;28;808;-65
2021/09/14 00:07:59;;;;;;;;;;;;;;;22.23;52.18;101686.56;2075160;28;764;-65
2021/09/14 00:08:59;;;;;;;;;;;;;;;22.27;49.73;101680.16;2075428;28;783;-63
2021/09/14 00:10:00;;;;;;;;;;;;;;;22.30;51.75;101682.78;2075468;28;882;-63
2021/09/14 00:11:00;;;;;;;;;;;;;;;22.21;53.12;101680.31;2075082;28;859;-63
2021/09/14 00:12:00;;;;;;;;;;;;;;;22.21;51.39;101678.50;2075438;28;981;-63
2021/09/14 00:13:00;;;;;;;;;;;;;;;22.25;50.41;101678.41;2075419;28;787;-63
2021/09/14 00:14:01;;;;;;;;;;;;;;;22.27;50.42;101677.47;2075085;28;1064;-63
2021/09/14 00:15:02;;;;;;;;;;;;;;;22.26;52.96;101674.78;2075338;28;1902;-62
2021/09/14 00:16:02;;;;;;;;;;;;;;;22.15;52.34;101675.09;2075436;28;843;-62
2021/09/14 00:17:02;;;;;;;;;;;;;;;22.25;52.90;101678.41;2066328;28;1805;-63
2021/09/14 00:18:03;;;;;;;;;;;;;;;22.31;50.03;101683.66;2066771;28;780;-62
2021/09/14 00:19:03;;;;;;;;;;;;;;;22.24;50.33;101672.16;2075356;28;967;-63
2021/09/14 00:20:04;;;;;;;;;;;;;;;22.24;52.59;101684.75;2075008;28;958;-63
2021/09/14 00:21:04;;;;;;;;;;;;;;;22.12;52.57;101686.84;2075322;28;1110;-63
2021/09/14 00:22:04;;;;;;;;;;;;;;;22.17;51.45;101681.34;2075288;28;1524;-63
2021/09/14 00:23:05;;;;;;;;;;;;;;;22.23;51.09;101682.97;2075179;28;1043;-63
2021/09/14 00:24:05;;;;;;;;;;;;;;;22.24;53.48;101685.66;2075356;28;807;-63
2021/09/14 00:25:05;;;;;;;;;;;;;;;22.19;52.90;101682.19;2075359;28;823;-63
2021/09/14 00:26:05;;;;;;;;;;;;;;;22.27;50.81;101679.25;2065992;28;1635;-63
2021/09/14 00:27:06;;;;;;;;;;;;;;;22.19;51.08;101674.97;2066601;28;977;-63
2021/09/14 00:28:06;;;;;;;;;;;;;;;22.25;52.19;101683.81;2075174;28;780;-63
2021/09/14 00:29:06;;;;;;;;;;;;;;;22.20;50.09;101687.53;2075208;28;906;-63
2021/09/14 00:30:06;;;;;;;;;;;;;;;22.18;51.16;101683.09;2066355;28;950;-62
2021/09/14 00:31:07;;;;;;;;;;;;;;;22.18;53.19;101678.59;2066324;28;843;-63
2021/09/14 00:32:07;;;;;;;;;;;;;;;22.10;52.54;101680.59;2075278;28;977;-63
2021/09/14 00:33:07;;;;;;;;;;;;;;;22.06;52.72;101679.81;2075176;28;974;-63
2021/09/14 00:34:07;;;;;;;;;;;;;;;22.09;52.43;101677.94;2075122;28;1930;-62
2021/09/14 00:35:07;;;;;;;;;;;;;;;22.16;51.49;101680.44;2075202;28;815;-63
2021/09/14 00:36:07;;;;;;;;;;;;;;;22.18;53.81;101685.81;2075092;28;772;-63
2021/09/14 00:37:08;;;;;;;;;;;;;;;22.11;53.49;101681.50;2075145;28;961;-63
2021/09/14 00:38:08;;;;;;;;;;;;;;;22.03;54.34;101677.19;2075165;28;839;-63
2021/09/14 00:39:08;;;;;;;;;;;;;;;22.00;54.51;101673.69;2075133;28;974;-63
2021/09/14 00:40:09;;;;;;;;;;;;;;;22.01;52.12;101675.47;2075262;28;756;-63
2021/09/14 00:41:09;;;;;;;;;;;;;;;22.11;52.76;101673.41;2067427;28;1305;-63
2021/09/14 00:42:09;;;;;;;;;;;;;;;22.10;53.92;101679.72;2067090;28;981;-63
2021/09/14 00:43:09;;;;;;;;;;;;;;;22.10;54.48;101677.91;2066941;28;1029;-63
2021/09/14 00:44:09;;;;;;;;;;;;;;;22.11;51.73;101681.50;2066677;28;926;-63
2021/09/14 00:45:10;;;;;;;;;;;;;;;22.09;51.81;101680.66;2067122;28;926;-63
2021/09/14 00:46:10;;;;;;;;;;;;;;;22.11;52.47;101687.75;2067088;28;1151;-63
2021/09/14 00:47:10;;;;;;;;;;;;;;;22.03;51.11;101685.28;2066764;28;766;-63
2021/09/14 00:48:10;;;;;;;;;;;;;;;22.10;52.52;101691.38;2067057;28;934;-63
2021/09/14 00:49:10;;;;;;;;;;;;;;;22.12;52.67;101685.97;2067049;28;1036;-63
2021/09/14 00:50:10;;;;;;;;;;;;;;;22.08;52.07;101690.53;2067091;28;1032;-63
2021/09/14 00:51:11;;;;;;;;;;;;;;;22.19;51.30;101684.88;2066966;28;973;-63
2021/09/14 00:52:11;;;;;;;;;;;;;;;22.14;51.85;101693.06;2066998;28;1013;-63
2021/09/14 00:53:13;;;;;;;;;;;;;;;22.17;51.76;101684.03;2067086;28;1487;-63
2021/09/14 00:54:14;;;;;;;;;;;;;;;22.06;52.33;101685.19;2066914;28;1894;-63
2021/09/14 00:55:15;;;;;;;;;;;;;;;22.12;52.16;101685.97;2066662;28;772;-63
2021/09/14 00:56:15;;;;;;;;;;;;;;;22.11;51.01;101681.50;2066949;28;764;-63
2021/09/14 00:57:16;;;;;;;;;;;;;;;22.03;50.90;101685.28;2067049;28;843;-63
2021/09/14 00:58:16;;;;;;;;;;;;;;;22.09;50.91;101686.91;2066964;28;854;-63
2021/09/14 00:59:16;;;;;;;;;;;;;;;22.01;52.89;101684.44;2066976;28;866;-63
2021/09/14 01:00:16;;;;;;;;;;;;;;;22.10;51.20;101685.13;2066742;28;978;-63
2021/09/14 01:01:17;;;;;;;;;;;;;;;22.02;51.52;101686.22;2066930;28;985;-63
2021/09/14 01:02:17;;;;;;;;;;;;;;;21.99;51.46;101682.72;2067038;28;835;-63
2021/09/14 01:03:17;;;;;;;;;;;;;;;22.06;49.87;101687.91;2066748;28;977;-63
2021/09/14 01:04:17;;;;;;;;;;;;;;;22.00;52.10;101681.78;2066948;28;772;-63
2021/09/14 01:05:18;;;;;;;;;;;;;;;22.05;54.19;101685.25;2066977;28;1036;-63
2021/09/14 01:06:18;;;;;;;;;;;;;;;21.96;52.89;101680.97;2066713;28;982;-63
2021/09/14 01:07:19;;;;;;;;;;;;;;;22.03;52.36;101677.19;2066808;28;768;-63
2021/09/14 01:08:19;;;;;;;;;;;;;;;22.13;51.09;101688.59;2066911;28;792;-63
2021/09/14 01:09:20;;;;;;;;;;;;;;;22.16;50.18;101687.66;2066803;28;804;-63
2021/09/14 01:10:21;;;;;;;;;;;;;;;22.10;54.02;101693.22;2066784;28;978;-63
2021/09/14 01:11:21;;;;;;;;;;;;;;;22.08;50.64;101684.28;2066955;28;823;-63
2021/09/14 01:12:22;;;;;;;;;;;;;;;22.12;51.22;101683.28;2074301;28;1660;-63
2021/09/14 01:13:22;;;;;;;;;;;;;;;22.16;49.96;101685.84;2075058;28;1033;-63
2021/09/14 01:14:22;;;;;;;;;;;;;;;22.17;50.83;101686.72;2075035;28;1886;-63
2021/09/14 01:15:24;;;;;;;;;;;;;;;22.13;51.07;101685.03;2075023;28;977;-63
2021/09/14 01:16:25;;;;;;;;;;;;;;;22.08;51.31;101684.28;2074986;28;807;-63
2021/09/14 01:17:25;;;;;;;;;;;;;;;21.99;52.85;101683.59;2074981;28;906;-63
2021/09/14 01:18:25;;;;;;;;;;;;;;;22.06;51.19;101690.59;2074717;28;897;-63
2021/09/14 01:19:25;;;;;;;;;;;;;;;22.08;52.06;101685.16;2066309;28;894;-63
2021/09/14 01:20:25;;;;;;;;;;;;;;;22.10;50.70;101680.59;2066339;28;1013;-63
2021/09/14 01:21:26;;;;;;;;;;;;;;;22.05;52.72;101679.88;2074865;28;962;-63
2021/09/14 01:22:27;;;;;;;;;;;;;;;21.98;50.94;101676.41;2074928;28;1283;-63
2021/09/14 01:23:28;;;;;;;;;;;;;;;22.01;52.55;101675.47;2074981;28;783;-63
2021/09/14 01:24:28;;;;;;;;;;;;;;;22.03;52.76;101674.50;2075053;28;1056;-63
2021/09/14 01:25:28;;;;;;;;;;;;;;;22.08;53.73;101668.09;2075038;28;831;-63
2021/09/14 01:26:28;;;;;;;;;;;;;;;22.04;52.18;101675.41;2074980;28;838;-63
2021/09/14 01:27:28;;;;;;;;;;;;;;;22.08;52.25;101676.19;2066307;28;978;-63
2021/09/14 01:28:29;;;;;;;;;;;;;;;22.05;53.19;101672.63;2066242;28;851;-63
2021/09/14 01:30:48;;;;;;;;;;;;;;;22.00;52.37;101673.69;2074857;28;769;-63
2021/09/14 01:31:48;;;;;;;;;;;;;;;22.00;52.41;101679.09;2075022;28;981;-63
2021/09/14 01:32:50;;;;;;;;;;;;;;;22.05;53.19;101680.72;2075012;28;819;-63
2021/09/14 01:33:51;;;;;;;;;;;;;;;22.06;51.91;101684.34;2074953;28;783;-63
2021/09/14 01:34:51;;;;;;;;;;;;;;;22.10;51.13;101679.72;2074950;28;1914;-63
2021/09/14 01:35:51;;;;;;;;;;;;;;;22.17;50.44;101681.34;2074989;28;847;-63
2021/09/14 01:36:51;;;;;;;;;;;;;;;22.08;52.14;101674.34;2074912;28;783;-62
2021/09/14 01:37:51;;;;;;;;;;;;;;;22.10;50.74;101672.50;2076495;28;1029;-63
2021/09/14 01:38:52;;;;;;;;;;;;;;;22.16;52.16;101679.56;2076542;28;843;-63
2021/09/14 01:39:52;;;;;;;;;;;;;;;22.11;52.48;101676.09;2076641;28;855;-63
2021/09/14 01:40:53;;;;;;;;;;;;;;;21.99;52.33;101671.94;2076552;28;1217;-63
2021/09/14 01:41:53;;;;;;;;;;;;;;;21.95;53.11;101676.50;2076297;28;854;-63
2021/09/14 01:42:54;;;;;;;;;;;;;;;21.93;51.78;101672.94;2076588;28;795;-63
2021/09/14 01:43:54;;;;;;;;;;;;;;;22.02;52.04;101678.13;2076607;28;799;-63
2021/09/14 01:44:55;;;;;;;;;;;;;;;22.04;51.87;101672.69;2076404;28;811;-63
2021/09/14 01:45:55;;;;;;;;;;;;;;;21.98;53.40;101675.56;2076588;28;1354;-63
2021/09/14 01:46:55;;;;;;;;;;;;;;;21.90;53.57;101670.34;2076439;28;1001;-62
2021/09/14 01:47:55;;;;;;;;;;;;;;;21.92;52.17;101671.19;2076421;28;985;-63
2021/09/14 01:48:55;;;;;;;;;;;;;;;21.98;52.84;101671.03;2081371;28;1087;-63
2021/09/14 01:49:56;;;;;;;;;;;;;;;21.99;52.18;101677.31;2075781;28;954;-63
2021/09/14 01:50:56;;;;;;;;;;;;;;;21.96;52.09;101677.41;2075887;28;970;-63
2021/09/14 01:51:58;;;;;;;;;;;;;;;21.96;51.83;101670.19;2084726;28;771;-63
2021/09/14 01:53:01;;;;;;;;;;;;;;;21.95;53.99;101673.81;2084494;28;918;-63
2021/09/14 01:54:02;;;;;;;;;;;;;;;21.94;52.52;101671.16;2084669;28;815;-63
2021/09/14 01:55:03;;;;;;;;;;;;;;;21.95;51.66;101671.09;2084539;28;1894;-63
2021/09/14 01:56:05;;;;;;;;;;;;;;;22.01;51.53;101670.06;2084385;28;841;-63
2021/09/14 01:57:06;;;;;;;;;;;;;;;22.03;51.48;101669.09;2084561;28;960;-63
2021/09/14 01:58:06;;;;;;;;;;;;;;;21.96;51.21;101672.00;2084624;28;795;-63
2021/09/14 01:59:06;;;;;;;;;;;;;;;22.02;51.39;101670.03;2084559;28;835;-63
2021/09/14 02:00:15;;;;;;;;;;;;;;;22.02;51.22;101678.13;2084634;28;842;-63
2021/09/14 02:01:34;;;;;;;;;;;;;;;22.00;51.14;101677.25;2084606;28;689;-63
2021/09/14 02:04:34;;;;;;;;;;;;;;;22.05;52.42;101678.03;2084740;28;803;-63
2021/09/14 02:07:42;;;;;;;;;;;;;;;22.01;50.36;101680.88;2084339;28;763;-63
2021/09/14 02:09:05;;;;;;;;;;;;;;;21.91;52.12;101673.00;2084631;28;883;-63
2021/09/14 02:24:01;;;;;;;;;;;;;;;21.94;52.30;101679.25;2051223;29;1181;-63
2021/09/14 02:34:12;;;;;;;;;;;;;;;21.93;50.91;101689.13;2051102;29;781;-63
2021/09/14 02:39:26;;;;;;;;;;;;;;;21.95;50.97;101691.81;2051228;29;823;-63
2021/09/14 02:44:28;;;;;;;;;;;;;;;21.96;52.94;101698.97;2043347;29;700;-62
2021/09/14 02:59:26;;;;;;;;;;;;;;;21.86;52.92;101703.69;2067956;28;782;-63
2021/09/14 03:00:26;;;;;;;;;;;;;;;21.93;52.84;101713.41;2067862;28;997;-63
2021/09/14 03:01:26;;;;;;;;;;;;;;;21.85;52.45;101712.72;2067808;28;898;-63
2021/09/14 03:02:26;;;;;;;;;;;;;;;21.92;51.49;101717.03;2059116;28;950;-63
2021/09/14 03:03:27;;;;;;;;;;;;;;;21.91;51.28;101708.06;2059228;28;970;-63
2021/09/14 03:04:27;;;;;;;;;;;;;;;21.89;54.46;101707.22;2067634;28;772;-63
2021/09/14 03:05:28;;;;;;;;;;;;;;;21.84;52.09;101710.94;2067897;28;973;-63
2021/09/14 03:06:29;;;;;;;;;;;;;;;21.87;53.33;101714.47;2067585;28;783;-63
2021/09/14 03:07:29;;;;;;;;;;;;;;;21.90;53.17;101714.41;2067821;28;824;-63
2021/09/14 03:08:29;;;;;;;;;;;;;;;21.91;51.74;101713.47;2067684;28;1170;-63
2021/09/14 03:09:29;;;;;;;;;;;;;;;21.97;51.79;101712.41;2067808;28;808;-63
2021/09/14 03:10:29;;;;;;;;;;;;;;;21.92;53.29;101714.34;2067759;28;1278;-63
2021/09/14 03:11:29;;;;;;;;;;;;;;;21.76;52.97;101711.16;2067722;28;831;-63
2021/09/14 03:12:29;;;;;;;;;;;;;;;21.76;52.88;101694.97;2067766;28;907;-63
2021/09/14 03:13:30;;;;;;;;;;;;;;;21.87;53.52;101692.91;2067817;28;962;-63
2021/09/14 03:14:30;;;;;;;;;;;;;;;21.95;51.43;101683.72;2067685;28;1957;-63
2021/09/14 03:15:31;;;;;;;;;;;;;;;21.95;52.80;101691.81;2067750;28;982;-63
2021/09/14 03:16:31;;;;;;;;;;;;;;;21.84;52.58;101689.38;2067722;28;807;-63
2021/09/14 03:17:31;;;;;;;;;;;;;;;21.91;51.56;101697.28;2067729;28;915;-63
2021/09/14 03:18:31;;;;;;;;;;;;;;;21.91;52.44;101693.69;2067718;28;764;-63
2021/09/14 03:19:31;;;;;;;;;;;;;;;21.92;51.73;101695.47;2067723;28;780;-63
2021/09/14 03:20:32;;;;;;;;;;;;;;;21.94;50.90;101685.50;2067667;28;1014;-63
2021/09/14 03:21:32;;;;;;;;;;;;;;;21.85;53.24;101683.94;2067669;28;1058;-63
2021/09/14 03:22:32;;;;;;;;;;;;;;;21.82;52.70;101691.22;2067449;28;1483;-63
2021/09/14 03:23:33;;;;;;;;;;;;;;;21.87;53.38;101679.41;2067853;28;757;-63
2021/09/14 03:24:33;;;;;;;;;;;;;;;21.95;51.83;101687.28;2067600;28;1033;-63
2021/09/14 03:25:33;;;;;;;;;;;;;;;21.94;51.64;101690.91;2067728;28;942;-63
2021/09/14 03:26:33;;;;;;;;;;;;;;;21.99;52.53;101688.13;2067703;28;856;-63
2021/09/14 03:27:34;;;;;;;;;;;;;;;21.99;52.65;101688.97;2067664;28;872;-63
2021/09/14 03:28:35;;;;;;;;;;;;;;;21.92;51.74;101690.06;2067624;28;792;-63
2021/09/14 03:29:35;;;;;;;;;;;;;;;21.85;51.42;101689.34;2067683;28;772;-63
2021/09/14 03:30:35;;;;;;;;;;;;;;;21.92;51.56;101685.56;2067578;28;851;-63
2021/09/14 03:31:36;;;;;;;;;;;;;;;21.90;52.61;101689.22;2067276;28;1030;-63
2021/09/14 03:32:37;;;;;;;;;;;;;;;21.93;52.61;101686.44;2067619;28;863;-63
2021/09/14 03:33:37;;;;;;;;;;;;;;;21.86;53.57;101684.81;2067672;28;936;-63
2021/09/14 03:34:37;;;;;;;;;;;;;;;21.95;52.63;101684.59;2067524;28;1975;-63
2021/09/14 03:35:37;;;;;;;;;;;;;;;21.97;52.84;101688.13;2067583;28;985;-63
2021/09/14 03:36:38;;;;;;;;;;;;;;;21.95;52.73;101681.88;2058775;28;1547;-62
2021/09/14 03:37:38;;;;;;;;;;;;;;;21.91;51.10;101685.59;2058997;28;851;-63
2021/09/14 03:38:38;;;;;;;;;;;;;;;21.92;51.73;101682.88;2067476;28;1013;-63
2021/09/14 03:39:38;;;;;;;;;;;;;;;21.91;51.82;101681.09;2067356;28;1001;-63
2021/09/14 03:40:43;;;;;;;;;;;;;;;21.96;52.40;101680.97;2067601;28;772;-63
2021/09/14 03:41:43;;;;;;;;;;;;;;;22.00;51.21;101677.25;2067576;28;1185;-63
2021/09/14 03:42:43;;;;;;;;;;;;;;;21.99;50.84;101686.28;2067327;28;974;-63
2021/09/14 03:43:44;;;;;;;;;;;;;;;21.98;51.73;101680.94;2067581;28;902;-63
2021/09/14 03:44:44;;;;;;;;;;;;;;;21.92;51.96;101687.38;2067489;28;892;-63
2021/09/14 03:45:46;;;;;;;;;;;;;;;21.85;52.16;101675.84;2067445;28;978;-63
2021/09/14 03:46:46;;;;;;;;;;;;;;;21.90;52.50;101676.63;2067524;28;783;-62
2021/09/14 03:47:46;;;;;;;;;;;;;;;21.93;51.13;101678.34;2058751;28;867;-63
2021/09/14 03:48:46;;;;;;;;;;;;;;;21.95;52.16;101681.03;2058996;28;982;-63
2021/09/14 03:49:46;;;;;;;;;;;;;;;21.92;53.77;101676.56;2067439;28;990;-63
2021/09/14 03:50:47;;;;;;;;;;;;;;;21.94;52.39;101684.66;2067320;28;785;-63
2021/09/14 03:51:47;;;;;;;;;;;;;;;21.95;51.59;101678.31;2067549;28;870;-63
2021/09/14 03:52:47;;;;;;;;;;;;;;;21.96;53.01;101680.09;2067462;28;966;-63
2021/09/14 03:53:47;;;;;;;;;;;;;;;21.90;52.39;101673.03;2067046;28;1497;-63
2021/09/14 03:54:47;;;;;;;;;;;;;;;21.88;51.18;101674.88;2067308;28;1887;-63
2021/09/14 03:55:48;;;;;;;;;;;;;;;21.90;52.95;101678.44;2067447;28;868;-63
2021/09/14 03:56:48;;;;;;;;;;;;;;;21.89;53.31;101677.56;2067344;28;982;-63
2021/09/14 03:57:48;;;;;;;;;;;;;;;21.89;52.36;101684.75;2067494;28;788;-62
2021/09/14 03:58:48;;;;;;;;;;;;;;;21.98;52.17;101684.50;2067265;28;981;-63
2021/09/14 03:59:48;;;;;;;;;;;;;;;21.95;53.10;101681.03;2067405;28;974;-63
2021/09/14 04:00:52;;;;;;;;;;;;;;;21.93;50.72;101686.44;2066507;28;785;-63
2021/09/14 04:01:55;;;;;;;;;;;;;;;21.95;51.32;101676.50;2066982;28;910;-62
2021/09/14 04:04:33;;;;;;;;;;;;;;;22.89;50.21;101686.53;2034525;29;1055;-63
2021/09/14 04:05:43;;;;;;;;;;;;;;;23.09;49.17;101683.22;2034811;29;844;-62
2021/09/14 04:06:55;;;;;;;;;;;;;;;23.23;47.41;101679.25;2034669;29;926;-63
2021/09/14 04:09:07;;;;;;;;;;;;;;;23.40;49.58;101678.69;2034645;29;875;-62
2021/09/14 04:10:08;;;;;;;;;;;;;;;23.50;45.97;101672.06;2034554;29;1008;-63
2021/09/14 04:11:08;;;;;;;;;;;;;;;23.54;47.25;101673.72;2034592;29;931;-63
2021/09/14 04:12:08;;;;;;;;;;;;;;;23.56;48.21;101681.78;2034646;29;861;-63
2021/09/14 04:13:09;;;;;;;;;;;;;;;23.61;47.47;101677.09;2034247;29;1054;-62
2021/09/14 04:14:09;;;;;;;;;;;;;;;23.65;47.13;101676.06;2034685;29;801;-63
2021/09/14 04:15:09;;;;;;;;;;;;;;;23.72;46.72;101681.28;2026697;29;1940;-62
2021/09/14 04:16:09;;;;;;;;;;;;;;;23.73;46.59;101667.69;2026380;29;971;-63
2021/09/14 04:17:10;;;;;;;;;;;;;;;23.75;48.97;101675.78;2034437;29;1050;-62
2021/09/14 04:18:10;;;;;;;;;;;;;;;23.84;46.53;101675.47;2034641;29;805;-63
2021/09/14 04:19:10;;;;;;;;;;;;;;;23.89;46.54;101678.84;2034530;29;843;-63
2021/09/14 04:20:11;;;;;;;;;;;;;;;23.91;46.39;101682.41;2034549;29;975;-63
2021/09/14 04:21:11;;;;;;;;;;;;;;;23.92;46.71;101680.59;2034554;29;797;-63
2021/09/14 04:22:11;;;;;;;;;;;;;;;24.00;47.26;101678.53;2034471;29;1194;-63
2021/09/14 04:23:12;;;;;;;;;;;;;;;24.04;47.27;101682.00;2034273;29;1117;-63
2021/09/14 04:24:12;;;;;;;;;;;;;;;24.04;45.69;101677.50;2034590;29;773;-63
2021/09/14 04:25:13;;;;;;;;;;;;;;;24.05;46.31;101686.50;2034616;29;974;-63
2021/09/14 04:26:13;;;;;;;;;;;;;;;24.09;45.52;101682.75;2034534;29;1041;-63
2021/09/14 04:27:13;;;;;;;;;;;;;;;24.12;45.92;101688.94;2034587;29;1235;-63
2021/09/14 04:28:13;;;;;;;;;;;;;;;24.13;46.38;101687.09;2034517;29;1041;-63
2021/09/14 04:29:13;;;;;;;;;;;;;;;24.16;46.32;101689.72;2034206;29;1018;-62
2021/09/14 04:30:13;;;;;;;;;;;;;;;24.15;47.54;101689.75;2034424;29;995;-63
2021/09/14 04:31:13;;;;;;;;;;;;;;;24.15;46.33;101687.03;2034568;29;962;-62
2021/09/14 04:32:14;;;;;;;;;;;;;;;24.17;46.12;101683.34;2034145;29;868;-63
2021/09/14 04:33:14;;;;;;;;;;;;;;;24.20;45.65;101685.97;2034512;29;927;-62
2021/09/14 04:34:14;;;;;;;;;;;;;;;24.26;46.16;101692.97;2034424;29;966;-63
2021/09/14 04:35:14;;;;;;;;;;;;;;;24.31;46.24;101682.84;2034381;29;1914;-63
2021/09/14 04:36:14;;;;;;;;;;;;;;;24.27;46.52;101689.31;2034459;29;808;-63
2021/09/14 04:37:14;;;;;;;;;;;;;;;24.35;47.39;101686.34;2034443;29;847;-62
2021/09/14 04:38:15;;;;;;;;;;;;;;;24.35;45.70;101683.66;2034410;29;911;-63
2021/09/14 04:39:15;;;;;;;;;;;;;;;24.51;45.59;101683.97;2034458;29;968;-63
2021/09/14 04:40:15;;;;;;;;;;;;;;;24.42;45.23;101688.78;2034060;29;1516;-63
2021/09/14 04:41:15;;;;;;;;;;;;;;;24.34;46.14;101696.28;2034479;29;1406;-63
2021/09/14 04:42:15;;;;;;;;;;;;;;;24.39;45.59;101694.28;2056325;28;974;-63
2021/09/14 04:43:16;;;;;;;;;;;;;;;24.41;45.51;101692.41;2058870;28;831;-63
2021/09/14 04:44:18;;;;;;;;;;;;;;;24.40;45.45;101697.91;2059039;28;815;-62
2021/09/14 04:45:18;;;;;;;;;;;;;;;24.47;45.71;101701.25;2058994;28;890;-63
2021/09/14 04:46:18;;;;;;;;;;;;;;;24.45;46.17;101697.72;2058793;28;1016;-63
2021/09/14 04:47:18;;;;;;;;;;;;;;;24.50;47.43;101702.00;2059120;28;966;-63
2021/09/14 04:48:19;;;;;;;;;;;;;;;24.47;44.73;101706.69;2058980;28;811;-62
2021/09/14 04:49:19;;;;;;;;;;;;;;;24.47;46.17;101714.81;2059048;28;922;-63
2021/09/14 04:50:19;;;;;;;;;;;;;;;24.49;45.04;101708.38;2058990;28;981;-62
2021/09/14 04:51:19;;;;;;;;;;;;;;;24.47;46.30;101706.69;2058693;28;791;-63
2021/09/14 04:52:19;;;;;;;;;;;;;;;24.45;45.46;101708.56;2059002;28;898;-63
2021/09/14 04:53:19;;;;;;;;;;;;;;;24.54;45.03;101709.09;2058418;28;1160;-63
2021/09/14 04:54:20;;;;;;;;;;;;;;;24.56;45.28;101712.63;2058291;28;1890;-63
2021/09/14 04:55:20;;;;;;;;;;;;;;;24.51;45.56;101716.47;2058996;28;914;-63
2021/09/14 04:56:20;;;;;;;;;;;;;;;24.54;45.00;101717.22;2059013;28;909;-63
2021/09/14 04:57:20;;;;;;;;;;;;;;;24.53;45.80;101717.28;2058768;28;990;-63
2021/09/14 04:58:20;;;;;;;;;;;;;;;24.53;45.50;101711.88;2058926;28;875;-63
2021/09/14 04:59:20;;;;;;;;;;;;;;;24.71;46.27;101711.19;2059003;28;932;-63
2021/09/14 05:00:21;;;;;;;;;;;;;;;24.66;45.07;101713.19;2059001;28;942;-63
2021/09/14 05:01:21;;;;;;;;;;;;;;;24.62;45.18;101716.94;2059015;28;977;-63
2021/09/14 05:02:21;;;;;;;;;;;;;;;24.67;45.94;101706.84;2058852;28;767;-63
2021/09/14 05:03:21;;;;;;;;;;;;;;;24.63;45.68;101709.69;2058972;28;977;-63
2021/09/14 05:04:21;;;;;;;;;;;;;;;24.70;48.10;101709.44;2058930;28;776;-63
2021/09/14 05:05:21;;;;;;;;;;;;;;;24.70;44.25;101706.72;2058656;28;989;-63
2021/09/14 05:06:22;;;;;;;;;;;;;;;24.84;45.15;101702.63;2058976;28;838;-63
2021/09/14 05:07:22;;;;;;;;;;;;;;;24.75;44.20;101695.72;2058941;28;978;-63
2021/09/14 05:08:22;;;;;;;;;;;;;;;24.71;44.29;101702.16;2058910;28;977;-63
2021/09/14 05:09:22;;;;;;;;;;;;;;;24.75;44.65;101705.66;2058957;28;989;-63
2021/09/14 05:10:22;;;;;;;;;;;;;;;24.88;43.98;101692.56;2058784;28;738;-63
2021/09/14 05:11:23;;;;;;;;;;;;;;;24.80;44.19;101698.25;2058976;28;765;-63
2021/09/14 05:12:23;;;;;;;;;;;;;;;24.74;43.86;101706.59;2058466;28;784;-63
2021/09/14 05:13:23;;;;;;;;;;;;;;;24.68;44.97;101708.59;2058631;28;978;-63
2021/09/14 05:14:23;;;;;;;;;;;;;;;24.75;45.87;101712.00;2058785;28;1890;-63
2021/09/14 05:15:23;;;;;;;;;;;;;;;24.78;44.79;101711.88;2058996;28;831;-63
2021/09/14 05:16:24;;;;;;;;;;;;;;;24.80;44.53;101704.56;2058846;28;867;-63
2021/09/14 05:17:24;;;;;;;;;;;;;;;24.88;44.80;101709.69;2058916;28;839;-63
2021/09/14 05:18:25;;;;;;;;;;;;;;;24.87;44.67;101716.03;2058852;28;1033;-63
2021/09/14 05:19:32;;;;;;;;;;;;;;;24.84;45.40;101716.16;2058691;28;824;-63
2021/09/14 05:20:33;;;;;;;;;;;;;;;24.76;44.67;101713.75;2058919;28;819;-63
2021/09/14 05:21:33;;;;;;;;;;;;;;;24.80;44.73;101711.81;2058958;28;819;-63
2021/09/14 05:22:34;;;;;;;;;;;;;;;24.81;44.25;101717.19;2058731;28;1193;-63
2021/09/14 05:23:34;;;;;;;;;;;;;;;24.89;43.41;101707.88;2066213;28;838;-62
2021/09/14 05:24:35;;;;;;;;;;;;;;;24.86;44.78;101711.56;2066739;28;851;-62
2021/09/14 05:25:35;;;;;;;;;;;;;;;24.83;46.83;101708.97;2066942;28;770;-62
2021/09/14 05:26:35;;;;;;;;;;;;;;;24.94;45.78;101706.75;2066845;28;854;-63
2021/09/14 05:27:35;;;;;;;;;;;;;;;24.80;44.67;101695.53;2066964;28;981;-63
2021/09/14 05:28:35;;;;;;;;;;;;;;;24.78;45.44;101702.84;2066814;28;970;-63
2021/09/14 05:29:36;;;;;;;;;;;;;;;24.69;45.49;101704.06;2066882;28;760;-64
2021/09/14 05:30:36;;;;;;;;;;;;;;;24.61;45.00;101703.44;2066809;28;772;-63
2021/09/14 05:31:36;;;;;;;;;;;;;;;24.63;45.03;101707.00;2065999;28;1190;-62
2021/09/14 05:32:36;;;;;;;;;;;;;;;24.60;45.57;101699.88;2066190;28;875;-62
2021/09/14 05:33:37;;;;;;;;;;;;;;;24.61;45.33;101698.94;2066860;28;961;-62
2021/09/14 05:34:37;;;;;;;;;;;;;;;24.68;44.65;101699.56;2066476;28;1926;-62
2021/09/14 05:35:51;;;;;;;;;;;;;;;24.62;44.55;101700.69;2066907;28;808;-62
2021/09/14 05:36:51;;;;;;;;;;;;;;;24.64;45.12;101693.41;2066790;28;776;-62
2021/09/14 05:37:52;;;;;;;;;;;;;;;24.72;44.54;101693.13;2066564;28;962;-62
2021/09/14 05:38:52;;;;;;;;;;;;;;;24.75;45.40;101702.97;2066838;28;851;-62
2021/09/14 05:39:52;;;;;;;;;;;;;;;24.79;44.55;101688.34;2066331;28;788;-62
2021/09/14 05:40:53;;;;;;;;;;;;;;;24.73;44.81;101696.75;2066241;28;1507;-62
2021/09/14 05:41:53;;;;;;;;;;;;;;;24.80;45.27;101698.25;2066853;28;886;-61
2021/09/14 05:42:54;;;;;;;;;;;;;;;24.83;44.90;101690.00;2065977;28;1303;-62
2021/09/14 05:43:54;;;;;;;;;;;;;;;24.90;44.20;101693.38;2066337;28;1124;-62
2021/09/14 05:44:54;;;;;;;;;;;;;;;24.89;44.57;101697.03;2066109;28;1244;-62
2021/09/14 05:45:55;;;;;;;;;;;;;;;24.88;44.95;101698.84;2066169;28;994;-62
2021/09/14 05:46:55;;;;;;;;;;;;;;;24.91;44.82;101693.31;2066689;28;1232;-62
2021/09/14 05:47:55;;;;;;;;;;;;;;;25.00;44.81;101692.97;2066817;28;1049;-62
2021/09/14 05:48:55;;;;;;;;;;;;;;;24.98;45.87;101696.69;2066485;28;1167;-62
2021/09/14 05:49:58;;;;;;;;;;;;;;;25.02;45.41;101704.63;2066846;28;783;-62
2021/09/14 05:50:58;;;;;;;;;;;;;;;24.98;45.95;101708.41;2066784;28;862;-62
2021/09/14 05:51:59;;;;;;;;;;;;;;;25.05;46.02;101703.59;2066437;28;981;-62
2021/09/14 05:52:59;;;;;;;;;;;;;;;25.05;46.60;101702.75;2066745;28;780;-62
2021/09/14 05:53:59;;;;;;;;;;;;;;;25.02;46.12;101712.75;2066782;28;883;-62
2021/09/14 05:54:59;;;;;;;;;;;;;;;25.02;46.75;101712.75;2066524;28;1914;-62
2021/09/14 05:55:59;;;;;;;;;;;;;;;24.94;48.92;101706.75;2066168;28;831;-62
2021/09/14 05:56:59;;;;;;;;;;;;;;;24.93;45.91;101702.25;2065809;28;2004;-61
2021/09/14 05:58:00;;;;;;;;;;;;;;;24.94;46.13;101709.47;2066728;28;1861;-62
2021/09/14 05:59:00;;;;;;;;;;;;;;;24.95;45.15;101710.34;2066701;28;697;-62
2021/09/14 06:00:00;;;;;;;;;;;;;;;24.98;46.08;101713.81;2066360;28;1757;-62
2021/09/14 06:01:00;;;;;;;;;;;;;;;24.92;45.62;101724.88;2066437;28;1878;-62
2021/09/14 06:02:00;;;;;;;;;;;;;;;24.89;44.82;101707.88;2066456;28;1803;-62
2021/09/14 06:03:03;;;;;;;;;;;;;;;24.80;44.88;101714.50;2066258;28;1862;-62
2021/09/14 06:04:03;;;;;;;;;;;;;;;24.82;43.88;101699.97;2065236;28;1815;-62
2021/09/14 06:05:04;;;;;;;;;;;;;;;24.81;44.43;101717.19;2066522;28;1708;-62
2021/09/14 06:06:06;;;;;;;;;;;;;;;24.79;43.51;101713.63;2066686;28;1874;-62
2021/09/14 06:07:06;;;;;;;;;;;;;;;24.86;43.19;101711.56;2066726;28;740;-62
2021/09/14 06:08:06;;;;;;;;;;;;;;;24.89;42.89;101713.28;2066206;28;1718;-62
2021/09/14 06:09:06;;;;;;;;;;;;;;;24.84;42.97;101718.88;2066315;28;1734;-62
2021/09/14 06:10:08;;;;;;;;;;;;;;;24.88;42.69;101715.09;2066532;28;1912;-62
2021/09/14 06:11:08;;;;;;;;;;;;;;;24.89;44.03;101710.59;2066135;28;1904;-62
2021/09/14 06:12:08;;;;;;;;;;;;;;;24.90;43.20;101699.69;2066381;28;1513;-62